Time;durP1;ratioP1;P1;durP2;ratioP2;P2;SDS_P1;SDS_P2;PMS_P1;PMS_P2;Temp;Humidity;BMP_temperature;BMP_pressure;BME280_temperature;BME280_humidity;BME280_pressure;Samples;Min_cycle;Max_cycle;Signal;HPM_P1;HPM_P2
2022/01/15 00:00:27;;;;;;;77.93;34.72;;;;;;;-3.99;100.00;97925.28;4946626;28;20046;-63
2022/01/15 00:02:54;;;;;;;83.47;36.20;;;;;;;-4.01;100.00;97917.50;4964526;28;20495;-64
2022/01/15 00:05:20;;;;;;;81.28;33.35;;;;;;;-3.94;100.00;97918.16;4974239;28;20590;-64
2022/01/15 00:07:48;;;;;;;80.15;34.25;;;;;;;-4.11;100.00;97915.44;4964515;28;20116;-64
2022/01/15 00:10:15;;;;;;;78.35;33.28;;;;;;;-4.36;100.00;97913.13;4959283;28;20050;-64
2022/01/15 00:12:41;;;;;;;77.35;35.35;;;;;;;-4.64;100.00;97916.66;4957403;28;20045;-63
2022/01/15 00:15:11;;;;;;;79.40;33.22;;;;;;;-4.61;100.00;97902.78;4959204;28;20484;-63
2022/01/15 00:17:52;;;;;;;86.05;33.80;;;;;;;-4.49;100.00;97905.44;4962607;28;20038;-63
2022/01/15 00:20:19;;;;;;;76.57;33.53;;;;;;;-4.28;100.00;97901.25;4956879;28;20077;-64
2022/01/15 00:22:46;;;;;;;81.97;35.10;;;;;;;-4.27;100.00;97898.34;4963802;28;20047;-64
2022/01/15 00:25:12;;;;;;;80.20;33.75;;;;;;;-4.25;100.00;97898.09;4957899;28;20074;-64
2022/01/15 00:27:39;;;;;;;78.22;35.10;;;;;;;-4.22;100.00;97895.72;4957499;28;20146;-63
2022/01/15 00:30:06;;;;;;;79.47;34.90;;;;;;;-4.18;100.00;97887.22;4962888;28;20125;-62
2022/01/15 00:32:31;;;;;;;81.72;34.20;;;;;;;-4.33;100.00;97885.91;4974182;28;20046;-63
2022/01/15 00:34:57;;;;;;;74.70;32.67;;;;;;;-4.22;100.00;97884.22;4973176;28;20098;-65
2022/01/15 00:37:23;;;;;;;80.38;33.45;;;;;;;-4.33;100.00;97883.25;4961302;28;20042;-65
2022/01/15 00:39:48;;;;;;;77.88;34.67;;;;;;;-4.50;100.00;97882.41;4959236;28;20050;-62
2022/01/15 00:42:14;;;;;;;80.35;33.03;;;;;;;-4.57;100.00;97889.75;4968966;28;20094;-63
2022/01/15 00:44:41;;;;;;;73.30;33.65;;;;;;;-4.61;100.00;97876.88;4976217;28;20050;-68
2022/01/15 00:47:08;;;;;;;77.60;32.72;;;;;;;-4.54;100.00;97879.41;4943401;28;20042;-64
2022/01/15 00:49:33;;;;;;;75.18;33.15;;;;;;;-4.49;100.00;97878.69;4965441;28;20062;-66
2022/01/15 00:51:59;;;;;;;78.78;33.60;;;;;;;-4.59;100.00;97873.16;4958167;28;20061;-67
2022/01/15 00:54:24;;;;;;;79.93;32.78;;;;;;;-4.57;100.00;97869.19;4956238;28;20046;-68
2022/01/15 00:56:49;;;;;;;75.88;32.58;;;;;;;-4.44;100.00;97865.41;4961880;28;20054;-65
2022/01/15 00:59:18;;;;;;;77.05;34.03;;;;;;;-4.32;100.00;97865.31;4957040;28;20043;-67
2022/01/15 01:01:43;;;;;;;73.00;31.75;;;;;;;-4.23;100.00;97870.06;4963219;28;20133;-65
2022/01/15 01:04:10;;;;;;;81.32;32.13;;;;;;;-4.22;100.00;97865.50;4954662;28;20058;-67
2022/01/15 01:06:36;;;;;;;76.60;32.47;;;;;;;-4.28;100.00;97863.81;4963232;28;20047;-67
2022/01/15 01:09:04;;;;;;;75.07;31.00;;;;;;;-4.25;100.00;97860.63;4966661;28;20057;-62
2022/01/15 01:11:47;;;;;;;71.68;31.35;;;;;;;-4.24;100.00;97859.59;4969459;28;20077;-67
2022/01/15 01:24:33;;;;;;;76.20;33.03;;;;;;;-4.89;100.00;97847.50;4957297;28;20040;-67
2022/01/15 01:27:12;;;;;;;79.85;32.00;;;;;;;-4.96;100.00;97842.28;4955395;28;20054;-66
2022/01/15 01:29:53;;;;;;;88.38;35.53;;;;;;;-4.96;100.00;97839.59;4963149;28;20038;-65
2022/01/15 01:34:56;;;;;;;82.80;32.22;;;;;;;-4.88;100.00;97835.72;4965422;28;20047;-65
2022/01/15 01:37:36;;;;;;;75.45;32.67;;;;;;;-4.92;100.00;97831.94;4958814;28;21305;-65
2022/01/15 01:43:40;;;;;;;78.22;31.48;;;;;;;-4.90;100.00;97833.28;4936131;28;20041;-62
2022/01/15 01:46:10;;;;;;;76.57;32.13;;;;;;;-4.84;100.00;97831.56;4959421;28;20046;-63
2022/01/15 01:48:36;;;;;;;78.80;31.90;;;;;;;-4.78;100.00;97832.44;4962706;28;20039;-62
2022/01/15 01:51:01;;;;;;;74.10;31.38;;;;;;;-4.77;100.00;97824.19;4977194;28;20444;-62
2022/01/15 01:53:26;;;;;;;71.97;30.67;;;;;;;-4.85;100.00;97825.38;4955155;28;20043;-62
2022/01/15 01:55:52;;;;;;;70.47;30.73;;;;;;;-4.90;100.00;97827.16;4962994;28;20042;-63
2022/01/15 01:58:17;;;;;;;74.70;30.75;;;;;;;-5.00;100.00;97823.25;4952242;28;20065;-62
2022/01/15 02:00:43;;;;;;;68.95;30.02;;;;;;;-5.18;100.00;97826.91;4961656;28;20049;-64
2022/01/15 02:03:08;;;;;;;76.50;31.27;;;;;;;-5.15;100.00;97814.91;4950827;28;20562;-63
2022/01/15 02:05:33;;;;;;;76.90;32.80;;;;;;;-4.91;100.00;97806.84;4961704;28;20125;-63
2022/01/15 02:07:59;;;;;;;71.15;29.92;;;;;;;-4.77;100.00;97805.50;4963042;28;20097;-65
2022/01/15 02:10:24;;;;;;;77.28;31.85;;;;;;;-4.77;100.00;97801.97;4955554;28;20101;-65
2022/01/15 02:12:51;;;;;;;70.50;29.83;;;;;;;-4.75;100.00;97800.72;4964231;28;20031;-64
2022/01/15 02:15:19;;;;;;;79.63;32.60;;;;;;;-4.72;100.00;97794.06;4958222;28;20042;-63
2022/01/15 02:17:47;;;;;;;77.97;31.38;;;;;;;-4.65;100.00;97800.06;4958988;28;20038;-63
2022/01/15 02:20:48;;;;;;;79.85;33.03;;;;;;;-4.40;100.00;97804.22;4953991;28;20135;-63
2022/01/15 02:26:01;;;;;;;68.00;29.70;;;;;;;-4.22;100.00;97801.28;4962820;28;20083;-63
2022/01/15 02:28:29;;;;;;;70.22;28.77;;;;;;;-4.18;100.00;97790.91;4960958;28;20632;-63
2022/01/15 02:30:58;;;;;;;62.38;28.42;;;;;;;-4.29;100.00;97795.31;4967663;28;20076;-63
2022/01/15 02:33:23;;;;;;;75.28;29.85;;;;;;;-4.44;100.00;97785.19;4961338;28;20050;-64
2022/01/15 02:35:49;;;;;;;67.05;29.58;;;;;;;-4.59;100.00;97785.75;4963727;28;20046;-62
2022/01/15 02:38:15;;;;;;;63.60;27.85;;;;;;;-4.62;100.00;97784.34;4950381;28;20400;-63
2022/01/15 02:40:42;;;;;;;65.15;28.23;;;;;;;-4.63;100.00;97784.59;4967108;28;20037;-63
2022/01/15 02:43:12;;;;;;;61.83;28.10;;;;;;;-4.76;100.00;97784.91;4956306;28;20102;-63
2022/01/15 02:45:42;;;;;;;66.80;29.00;;;;;;;-4.67;100.00;97786.13;4962497;28;20196;-63
2022/01/15 02:48:16;;;;;;;66.65;28.17;;;;;;;-4.66;100.00;97782.41;4950459;28;20034;-60
2022/01/15 02:50:43;;;;;;;69.80;30.75;;;;;;;-4.69;100.00;97785.56;4965572;28;20513;-62
2022/01/15 02:53:10;;;;;;;79.60;31.27;;;;;;;-4.89;100.00;97778.81;4945800;28;20034;-62
2022/01/15 02:55:41;;;;;;;73.55;30.05;;;;;;;-5.06;100.00;97773.44;4959809;28;20141;-63
2022/01/15 02:58:07;;;;;;;74.22;30.23;;;;;;;-5.01;100.00;97780.72;4955168;28;20045;-64
2022/01/15 03:00:32;;;;;;;72.78;30.70;;;;;;;-4.96;100.00;97769.31;4963625;28;20042;-64
2022/01/15 03:02:58;;;;;;;65.85;28.92;;;;;;;-4.87;100.00;97767.88;4964344;28;20133;-63
2022/01/15 03:05:23;;;;;;;66.63;28.38;;;;;;;-4.76;100.00;97760.84;4961203;28;20535;-62
2022/01/15 03:07:49;;;;;;;68.32;29.00;;;;;;;-4.74;100.00;97759.53;4964415;28;20094;-65
2022/01/15 03:10:14;;;;;;;60.20;26.90;;;;;;;-4.78;100.00;97755.75;4949408;28;20435;-64
2022/01/15 03:12:40;;;;;;;59.38;26.65;;;;;;;-4.75;100.00;97749.09;4965336;28;20598;-64
2022/01/15 03:15:08;;;;;;;63.30;29.02;;;;;;;-4.57;100.00;97745.38;4958081;28;20579;-63
2022/01/15 03:17:34;;;;;;;67.55;27.73;;;;;;;-4.50;100.00;97746.03;4955198;28;20046;-64
2022/01/15 03:20:03;;;;;;;64.78;26.70;;;;;;;-4.33;100.00;97754.84;4961390;28;20129;-65
2022/01/15 03:22:29;;;;;;;60.23;27.07;;;;;;;-4.33;100.00;97749.50;4959302;28;20045;-64
2022/01/15 03:24:54;;;;;;;56.97;25.25;;;;;;;-4.44;100.00;97751.22;4962083;28;20807;-62
2022/01/15 03:27:23;;;;;;;55.78;27.23;;;;;;;-4.42;100.00;97749.09;4951949;28;20038;-64
2022/01/15 03:29:50;;;;;;;71.25;29.05;;;;;;;-4.58;100.00;97741.91;4958262;28;20519;-64
2022/01/15 03:32:16;;;;;;;72.32;30.73;;;;;;;-4.73;100.00;97739.78;4958108;28;20031;-64
2022/01/15 03:34:42;;;;;;;77.70;31.00;;;;;;;-4.81;100.00;97745.53;4968820;28;20058;-64
2022/01/15 03:37:08;;;;;;;76.20;29.92;;;;;;;-4.89;100.00;97754.75;4964849;28;20522;-64
2022/01/15 03:39:35;;;;;;;76.05;30.33;;;;;;;-4.91;100.00;97742.69;4960903;28;20054;-60
2022/01/15 03:42:01;;;;;;;68.72;28.88;;;;;;;-4.92;100.00;97739.19;4965279;28;20042;-62
2022/01/15 03:44:27;;;;;;;71.72;29.98;;;;;;;-4.92;100.00;97738.41;4947919;28;20042;-62
2022/01/15 03:46:53;;;;;;;68.47;29.70;;;;;;;-4.91;100.00;97737.34;4966381;28;20118;-63
2022/01/15 03:49:18;;;;;;;70.80;28.17;;;;;;;-4.93;100.00;97739.44;4963721;28;20054;-62
2022/01/15 03:51:45;;;;;;;78.00;29.73;;;;;;;-4.92;100.00;97738.41;4953844;28;20057;-63
2022/01/15 03:54:10;;;;;;;67.40;28.42;;;;;;;-4.98;100.00;97736.69;4954674;28;20038;-64
2022/01/15 03:56:36;;;;;;;71.57;28.88;;;;;;;-5.00;100.00;97735.06;4964647;28;20039;-64
2022/01/15 03:59:02;;;;;;;72.80;28.55;;;;;;;-4.91;100.00;97729.34;4954718;28;20066;-63
2022/01/15 04:01:27;;;;;;;76.25;30.05;;;;;;;-4.76;100.00;97724.22;4951320;28;20042;-64
2022/01/15 04:03:53;;;;;;;75.88;30.00;;;;;;;-4.65;100.00;97730.56;4964563;28;20038;-64
2022/01/15 04:06:18;;;;;;;78.22;30.38;;;;;;;-4.76;100.00;97728.78;4956635;28;20039;-62
2022/01/15 04:08:44;;;;;;;68.65;30.63;;;;;;;-4.82;100.00;97727.88;4962951;28;20473;-65
2022/01/15 04:11:09;;;;;;;68.25;27.45;;;;;;;-4.83;100.00;97726.25;4963400;28;20035;-65
2022/01/15 04:13:35;;;;;;;76.55;31.17;;;;;;;-4.93;100.00;97729.56;4959323;28;20143;-64
2022/01/15 04:16:00;;;;;;;72.50;30.63;;;;;;;-5.03;100.00;97727.53;4973851;28;20530;-64
2022/01/15 04:18:29;;;;;;;79.65;32.67;;;;;;;-5.12;100.00;97718.28;4958126;28;20039;-65
2022/01/15 04:20:56;;;;;;;72.43;30.67;;;;;;;-5.08;100.00;97724.75;4962851;28;20090;-63
2022/01/15 04:23:22;;;;;;;71.00;29.23;;;;;;;-5.20;100.00;97727.50;4957236;28;20050;-67
2022/01/15 04:25:47;;;;;;;66.90;27.75;;;;;;;-5.19;100.00;97725.63;4963050;28;20071;-62
2022/01/15 04:28:13;;;;;;;63.97;27.45;;;;;;;-5.17;100.00;97723.53;4954384;28;20071;-62
2022/01/15 04:30:41;;;;;;;69.50;29.83;;;;;;;-5.23;100.00;97727.97;4979743;28;20058;-63
2022/01/15 04:33:07;;;;;;;61.20;28.88;;;;;;;-5.09;100.00;97727.69;4958097;28;20122;-63
2022/01/15 04:35:32;;;;;;;76.35;28.80;;;;;;;-5.07;100.00;97726.41;4962585;28;20606;-64
2022/01/15 04:38:06;;;;;;;59.22;26.85;;;;;;;-5.14;100.00;97723.06;4962887;28;20050;-63
2022/01/15 04:40:31;;;;;;;62.45;27.70;;;;;;;-5.06;100.00;97730.69;4955653;28;20043;-63
2022/01/15 04:42:56;;;;;;;72.13;30.30;;;;;;;-4.95;100.00;97729.00;4961823;28;20072;-64
2022/01/15 04:45:22;;;;;;;67.10;29.63;;;;;;;-4.84;100.00;97727.31;4948642;28;20086;-64
2022/01/15 04:47:47;;;;;;;66.93;28.00;;;;;;;-4.61;100.00;97729.84;4957840;28;20086;-62
2022/01/15 04:50:16;;;;;;;63.53;28.02;;;;;;;-4.45;100.00;97733.56;4954422;28;20500;-63
2022/01/15 04:52:42;;;;;;;59.85;27.98;;;;;;;-4.32;100.00;97727.06;4958209;28;20109;-61
2022/01/15 04:55:10;;;;;;;65.28;27.17;;;;;;;-4.21;100.00;97741.41;4955629;28;20042;-61
2022/01/15 04:57:36;;;;;;;62.83;27.60;;;;;;;-4.14;100.00;97738.53;4960361;28;20058;-63
2022/01/15 05:00:08;;;;;;;54.75;25.25;;;;;;;-4.31;100.00;97742.03;4979239;28;20066;-61
2022/01/15 05:02:34;;;;;;;55.95;25.38;;;;;;;-4.67;100.00;97743.34;4959828;28;20101;-65
2022/01/15 05:05:00;;;;;;;58.50;24.98;;;;;;;-4.74;100.00;97735.50;4961243;28;20051;-65
2022/01/15 05:07:25;;;;;;;63.50;26.77;;;;;;;-4.71;100.00;97739.56;4956296;28;20048;-63
2022/01/15 05:09:50;;;;;;;61.63;26.40;;;;;;;-5.11;100.00;97746.63;4962567;28;20109;-64
2022/01/15 05:14:51;;;;;;;62.03;27.10;;;;;;;-5.03;100.00;97743.56;4961838;28;20133;-65
2022/01/15 05:17:16;;;;;;;63.83;27.10;;;;;;;-4.96;100.00;97747.94;4954202;28;20039;-62
2022/01/15 05:19:42;;;;;;;61.40;27.15;;;;;;;-4.75;100.00;97739.22;4960031;28;20140;-63
2022/01/15 05:22:07;;;;;;;59.78;25.75;;;;;;;-4.37;100.00;97744.91;4958130;28;20183;-61
2022/01/15 05:24:33;;;;;;;60.97;26.05;;;;;;;-4.24;100.00;97748.03;4960982;28;20112;-63
2022/01/15 05:26:59;;;;;;;63.00;26.67;;;;;;;-4.16;100.00;97735.28;4959733;28;20487;-63
2022/01/15 05:29:25;;;;;;;59.17;25.42;;;;;;;-4.10;100.00;97739.69;4971309;28;21111;-63
2022/01/15 05:31:51;;;;;;;57.00;24.45;;;;;;;-4.52;100.00;97746.28;4962735;28;20038;-64
2022/01/15 05:34:17;;;;;;;58.67;25.90;;;;;;;-4.73;100.00;97741.66;4953045;28;20035;-63
2022/01/15 05:36:42;;;;;;;66.10;26.80;;;;;;;-4.80;100.00;97736.47;4962449;28;20046;-62
2022/01/15 05:39:08;;;;;;;68.00;28.48;;;;;;;-4.91;100.00;97737.34;4957333;28;20042;-65
2022/01/15 05:41:34;;;;;;;79.05;30.42;;;;;;;-4.81;100.00;97730.31;4964786;28;20038;-65
2022/01/15 05:44:02;;;;;;;101.60;32.80;;;;;;;-4.78;100.00;97728.22;4965318;28;20072;-65
2022/01/15 05:46:33;;;;;;;85.95;32.45;;;;;;;-4.69;100.00;97727.56;4963324;28;20054;-63
2022/01/15 05:49:00;;;;;;;132.88;35.50;;;;;;;-4.68;100.00;97736.38;4960736;28;20519;-63
2022/01/15 05:51:32;;;;;;;98.07;34.00;;;;;;;-4.54;100.00;97735.00;4953733;28;20141;-64
2022/01/15 05:54:00;;;;;;;166.60;37.80;;;;;;;-4.52;100.00;97740.13;4958159;28;20042;-63
2022/01/15 05:56:27;;;;;;;129.90;39.13;;;;;;;-4.46;100.00;97741.81;4956768;28;20972;-64
2022/01/15 05:58:52;;;;;;;109.32;37.67;;;;;;;-4.48;100.00;97736.72;4955140;28;20112;-64
2022/01/15 06:01:18;;;;;;;116.93;39.33;;;;;;;-4.32;100.00;97742.28;4956560;28;20043;-63
2022/01/15 06:03:43;;;;;;;130.02;38.55;;;;;;;-4.12;100.00;97739.13;4962573;28;20049;-64
2022/01/15 06:06:09;;;;;;;274.02;43.03;;;;;;;-4.06;100.00;97740.78;4951472;28;20058;-62
2022/01/15 06:08:34;;;;;;;192.27;41.60;;;;;;;-3.94;100.00;97730.00;4958450;28;20106;-65
2022/01/15 06:11:00;;;;;;;120.30;38.15;;;;;;;-3.89;100.00;97743.41;4963032;28;20101;-64
2022/01/15 06:13:25;;;;;;;199.70;44.13;;;;;;;-3.82;100.00;97740.56;4955221;28;20047;-65
2022/01/15 06:15:51;;;;;;;245.40;44.65;;;;;;;-3.89;100.00;97735.38;4962045;28;20057;-66
2022/01/15 06:18:16;;;;;;;337.52;49.22;;;;;;;-3.84;100.00;97736.25;4952512;28;20078;-66
2022/01/15 06:20:41;;;;;;;210.23;46.15;;;;;;;-3.77;100.00;97736.09;4958814;28;20038;-65
2022/01/15 06:23:07;;;;;;;268.13;46.38;;;;;;;-3.84;100.00;97732.78;4961223;28;20403;-65
2022/01/15 06:25:32;;;;;;;135.68;43.78;;;;;;;-3.78;100.00;97733.66;4965739;28;20074;-64
2022/01/15 06:27:57;;;;;;;335.77;48.47;;;;;;;-3.75;100.00;97736.66;4961988;28;20051;-64
2022/01/15 06:30:23;;;;;;;379.35;50.83;;;;;;;-3.89;100.00;97746.09;4964101;28;20507;-63
2022/01/15 06:32:49;;;;;;;166.63;45.35;;;;;;;-3.88;100.00;97732.47;4970276;28;20039;-64
2022/01/15 06:35:16;;;;;;;311.38;48.05;;;;;;;-3.79;100.00;97740.09;4963869;28;20038;-63
2022/01/15 06:37:42;;;;;;;272.70;45.25;;;;;;;-3.86;100.00;97737.59;4970301;28;20046;-64
2022/01/15 06:40:08;;;;;;;374.02;49.53;;;;;;;-3.99;100.00;97733.41;4957968;28;20137;-63
2022/01/15 06:42:33;;;;;;;321.73;50.75;;;;;;;-3.96;100.00;97732.91;4955288;28;20058;-63
2022/01/15 06:44:59;;;;;;;261.00;48.47;;;;;;;-3.95;100.00;97736.41;4959633;28;20055;-65
2022/01/15 06:47:25;;;;;;;141.88;42.65;;;;;;;-3.89;100.00;97733.56;4955787;28;20404;-64
2022/01/15 06:49:51;;;;;;;225.27;46.95;;;;;;;-3.72;100.00;97727.31;4962720;28;20056;-65
2022/01/15 06:52:16;;;;;;;295.20;50.13;;;;;;;-3.78;100.00;97739.00;4955153;28;20393;-65
2022/01/15 06:54:42;;;;;;;425.88;55.15;;;;;;;-3.74;100.00;97734.81;4965825;28;20046;-66
2022/01/15 06:57:07;;;;;;;165.70;45.67;;;;;;;-3.66;100.00;97737.81;4959031;28;20054;-64
2022/01/15 06:59:32;;;;;;;116.53;43.30;;;;;;;-3.56;100.00;97734.47;4961198;28;20061;-64
2022/01/15 07:01:58;;;;;;;419.08;50.47;;;;;;;-3.49;100.00;97727.06;4959835;28;20177;-65
2022/01/15 07:04:23;;;;;;;281.85;47.70;;;;;;;-3.48;100.00;97731.34;4951520;28;20039;-64
2022/01/15 07:06:49;;;;;;;108.32;42.25;;;;;;;-3.46;100.00;97723.06;4975974;28;20038;-63
2022/01/15 07:09:14;;;;;;;130.18;43.85;;;;;;;-3.29;100.00;97723.00;4956273;28;20065;-63
2022/01/15 07:11:39;;;;;;;262.95;46.45;;;;;;;-3.17;100.00;97722.84;4957266;28;20055;-64
2022/01/15 07:14:05;;;;;;;125.53;42.72;;;;;;;-3.20;100.00;97724.16;4961672;28;20122;-62
2022/01/15 07:16:30;;;;;;;293.73;48.85;;;;;;;-3.53;100.00;97725.97;4957849;28;20566;-64
2022/01/15 07:18:56;;;;;;;357.63;48.72;;;;;;;-3.70;100.00;97725.22;4962073;28;20078;-64
2022/01/15 07:21:21;;;;;;;196.95;45.22;;;;;;;-3.76;100.00;97721.66;4967038;28;20960;-64
2022/01/15 07:23:47;;;;;;;132.40;42.28;;;;;;;-3.68;100.00;97731.13;4965108;28;20038;-65
2022/01/15 07:26:12;;;;;;;101.63;40.00;;;;;;;-3.44;100.00;97728.97;4952804;28;20632;-64
2022/01/15 07:28:38;;;;;;;106.55;41.95;;;;;;;-3.34;100.00;97722.94;4960013;28;20584;-64
2022/01/15 07:31:06;;;;;;;100.07;38.85;;;;;;;-3.12;100.00;97723.69;4964710;28;20061;-62
2022/01/15 07:33:32;;;;;;;121.57;40.83;;;;;;;-3.21;100.00;97727.88;4961206;28;20043;-63
2022/01/15 07:35:58;;;;;;;174.18;42.72;;;;;;;-3.38;100.00;97728.00;4964548;28;20101;-63
2022/01/15 07:38:23;;;;;;;106.35;39.95;;;;;;;-3.38;100.00;97730.66;4959974;28;20054;-63
2022/01/15 07:40:49;;;;;;;110.22;41.20;;;;;;;-3.26;100.00;97733.19;4957229;28;20066;-64
2022/01/15 07:43:15;;;;;;;103.07;40.95;;;;;;;-3.15;100.00;97726.91;4966418;28;20080;-64
2022/01/15 07:45:40;;;;;;;151.90;43.38;;;;;;;-3.09;100.00;97736.59;4964518;28;20101;-64
2022/01/15 07:48:06;;;;;;;221.40;49.72;;;;;;;-3.52;100.00;97732.13;4958947;28;20050;-66
2022/01/15 07:50:31;;;;;;;203.98;43.50;;;;;;;-3.65;100.00;97725.28;4963678;28;20053;-63
2022/01/15 07:52:58;;;;;;;114.93;39.65;;;;;;;-3.86;100.00;97722.31;4965036;28;20051;-62
2022/01/15 07:55:25;;;;;;;135.02;39.03;;;;;;;-3.80;100.00;97731.22;4957789;28;20565;-63
2022/01/15 07:57:51;;;;;;;155.35;39.70;;;;;;;-3.89;100.00;97722.84;4964768;28;20125;-64
2022/01/15 08:00:18;;;;;;;247.93;47.17;;;;;;;-3.87;100.00;97725.25;4958615;28;20038;-63
2022/01/15 08:02:43;;;;;;;231.30;46.22;;;;;;;-4.02;100.00;97731.22;4964760;28;20067;-65
2022/01/15 08:05:10;;;;;;;108.78;43.60;;;;;;;-3.93;100.00;97732.41;4964601;28;20547;-63
2022/01/15 08:07:37;;;;;;;334.58;55.33;;;;;;;-3.84;100.00;97725.56;4962926;28;20042;-64
2022/01/15 08:10:06;;;;;;;187.23;48.50;;;;;;;-3.87;100.00;97730.59;4958583;28;20039;-61
2022/01/15 08:12:31;;;;;;;178.35;46.72;;;;;;;-3.74;100.00;97724.91;4974691;28;20054;-64
2022/01/15 08:14:57;;;;;;;116.40;46.33;;;;;;;-3.62;100.00;97726.63;4964516;28;20049;-64
2022/01/15 08:17:22;;;;;;;104.45;42.85;;;;;;;-3.37;100.00;97723.44;4955697;28;20411;-65
2022/01/15 08:19:48;;;;;;;140.10;47.10;;;;;;;-3.20;100.00;97721.47;4961621;28;20074;-65
2022/01/15 08:22:13;;;;;;;130.10;46.42;;;;;;;-3.05;100.00;97711.97;4961766;28;20042;-64
2022/01/15 08:24:39;;;;;;;116.47;44.97;;;;;;;-2.78;100.00;97710.06;4956315;28;20217;-63
2022/01/15 08:27:04;;;;;;;105.88;41.83;;;;;;;-2.59;100.00;97715.03;4959127;28;20043;-61
2022/01/15 08:29:30;;;;;;;95.05;40.50;;;;;;;-2.41;100.00;97705.78;4962725;28;20058;-63
2022/01/15 08:31:56;;;;;;;86.65;39.17;;;;;;;-2.44;100.00;97709.78;4965815;28;20047;-62
2022/01/15 08:34:22;;;;;;;88.10;37.40;;;;;;;-2.36;100.00;97714.69;4957530;28;20213;-63
2022/01/15 08:36:47;;;;;;;85.07;37.40;;;;;;;-2.26;100.00;97713.94;4963643;28;20039;-63
2022/01/15 08:39:13;;;;;;;104.38;36.67;;;;;;;-2.29;100.00;97713.66;4958887;28;20538;-64
2022/01/15 08:41:39;;;;;;;127.10;32.90;;;;;;;-2.35;100.00;97718.19;4957675;28;20039;-63
2022/01/15 08:44:06;;;;;;;72.93;33.20;;;;;;;-2.36;100.00;97711.19;4955893;28;20046;-63
2022/01/15 08:46:31;;;;;;;79.50;34.25;;;;;;;-2.21;100.00;97713.97;4963384;28;20497;-65
2022/01/15 08:48:57;;;;;;;68.68;31.00;;;;;;;-1.98;100.00;97720.00;4965061;28;20046;-64
2022/01/15 08:51:22;;;;;;;76.55;31.75;;;;;;;-1.93;100.00;97720.03;4983024;28;20129;-64
2022/01/15 08:53:48;;;;;;;74.95;31.02;;;;;;;-2.03;100.00;97717.31;4961445;28;20051;-65
2022/01/15 08:56:13;;;;;;;62.80;32.33;;;;;;;-1.99;100.00;97711.16;4950100;28;20042;-65
2022/01/15 08:58:39;;;;;;;93.30;29.80;;;;;;;-1.70;100.00;97713.44;4959184;28;20047;-65
2022/01/15 09:01:05;;;;;;;96.03;30.83;;;;;;;-1.91;100.00;97701.78;4959660;28;20408;-64
2022/01/15 09:03:33;;;;;;;58.47;28.98;;;;;;;-1.69;100.00;97706.19;4943904;28;20380;-64
2022/01/15 09:05:59;;;;;;;59.67;28.55;;;;;;;-1.43;100.00;97704.41;4962744;28;20450;-64
2022/01/15 09:08:24;;;;;;;67.97;27.40;;;;;;;-1.37;100.00;97709.53;4954633;28;20070;-65
2022/01/15 09:10:53;;;;;;;91.75;28.83;;;;;;;-1.26;100.00;97705.00;4966568;28;20432;-64
2022/01/15 09:13:19;;;;;;;53.25;26.42;;;;;;;-1.16;100.00;97701.50;4963540;28;20145;-63
2022/01/15 09:15:45;;;;;;;52.33;26.52;;;;;;;-0.88;100.00;97700.22;4960837;28;20081;-65
2022/01/15 09:18:10;;;;;;;46.47;25.08;;;;;;;-0.73;100.00;97691.34;4957750;28;20100;-66
2022/01/15 09:20:36;;;;;;;45.28;23.17;;;;;;;-0.81;100.00;97695.38;4961472;28;20054;-67
2022/01/15 09:23:02;;;;;;;50.90;24.88;;;;;;;-0.65;100.00;97696.19;4960300;28;20042;-63
2022/01/15 09:25:28;;;;;;;53.28;25.33;;;;;;;-0.65;100.00;97685.44;4954990;28;20600;-65
2022/01/15 09:30:40;;;;;;;51.95;26.58;;;;;;;-0.64;100.00;97684.34;4962562;28;20050;-66
2022/01/15 09:33:06;;;;;;;108.78;28.30;;;;;;;-0.73;100.00;97679.78;4959026;28;20104;-63
2022/01/15 09:35:32;;;;;;;80.20;26.77;;;;;;;-0.96;100.00;97687.28;4956102;28;20051;-65
2022/01/15 09:37:58;;;;;;;134.10;27.48;;;;;;;-1.40;100.00;97685.88;4958396;28;20512;-65
2022/01/15 09:40:26;;;;;;;130.75;29.38;;;;;;;-1.14;100.00;97690.50;4949893;28;20050;-65
2022/01/15 09:42:53;;;;;;;69.65;30.17;;;;;;;-0.72;100.00;97676.00;4957372;28;20045;-67
2022/01/15 09:45:20;;;;;;;100.32;29.95;;;;;;;-0.92;100.00;97679.50;4951519;28;20049;-67
2022/01/15 09:47:47;;;;;;;86.05;28.58;;;;;;;-0.71;100.00;97680.31;4955747;28;20104;-66
2022/01/15 09:50:15;;;;;;;94.18;30.27;;;;;;;-1.30;100.00;97673.53;4954593;28;20133;-66
2022/01/15 09:52:41;;;;;;;93.50;29.63;;;;;;;-1.60;100.00;97667.00;4961213;28;20101;-65
2022/01/15 09:55:10;;;;;;;164.30;33.20;;;;;;;-1.53;100.00;97672.94;4955527;28;20038;-66
2022/01/15 09:57:37;;;;;;;235.50;35.75;;;;;;;-1.93;100.00;97663.66;4963134;28;20051;-66
2022/01/15 10:00:09;;;;;;;78.43;35.17;;;;;;;-1.22;100.00;97664.94;4954969;28;20038;-65
2022/01/15 10:02:36;;;;;;;74.47;33.70;;;;;;;-0.66;100.00;97651.53;4957256;28;20511;-65
2022/01/15 10:05:02;;;;;;;67.20;31.00;;;;;;;-0.49;100.00;97651.22;4959625;28;20102;-65
2022/01/15 10:07:28;;;;;;;64.90;30.63;;;;;;;-0.28;100.00;97653.91;4957098;28;20050;-65
2022/01/15 10:09:55;;;;;;;65.07;29.83;;;;;;;-0.04;100.00;97651.41;4959395;28;20125;-65
2022/01/15 10:12:28;;;;;;;63.45;28.42;;;;;;;-0.03;100.00;97644.94;4957018;28;20053;-65
2022/01/15 10:14:57;;;;;;;89.70;29.17;;;;;;;-0.26;100.00;97644.44;4961570;28;20522;-66
2022/01/15 10:17:28;;;;;;;61.72;29.25;;;;;;;0.08;100.00;97646.50;4953091;28;20284;-64
2022/01/15 10:19:57;;;;;;;56.83;28.88;;;;;;;0.21;100.00;97647.00;4961442;28;20135;-65
2022/01/15 10:22:24;;;;;;;68.50;30.53;;;;;;;0.28;100.00;97647.50;4955670;28;20599;-64
2022/01/15 10:24:58;;;;;;;60.50;29.08;;;;;;;0.57;100.00;97634.94;4956949;28;20061;-65
2022/01/15 10:27:35;;;;;;;59.65;28.10;;;;;;;0.76;100.00;97640.50;4950267;28;20054;-65
2022/01/15 10:30:00;;;;;;;62.00;28.05;;;;;;;0.66;100.00;97639.75;4972898;28;20062;-63
2022/01/15 10:32:28;;;;;;;63.00;27.15;;;;;;;0.58;100.00;97630.38;4952099;28;20078;-64
2022/01/15 10:34:53;;;;;;;61.65;29.20;;;;;;;0.81;100.00;97636.16;4960585;28;20046;-64
2022/01/15 10:37:34;;;;;;;88.88;28.65;;;;;;;0.67;100.00;97639.50;4943725;28;20483;-65
2022/01/15 10:40:10;;;;;;;56.40;26.88;;;;;;;0.70;100.00;97633.53;4970076;28;20730;-64
2022/01/15 10:42:36;;;;;;;57.17;27.95;;;;;;;0.92;100.00;97633.13;4956855;28;20046;-65
2022/01/15 10:45:13;;;;;;;65.68;28.88;;;;;;;1.01;100.00;97627.09;4961119;28;20097;-63
2022/01/15 10:47:47;;;;;;;62.42;28.42;;;;;;;1.00;100.00;97623.63;4959202;28;20043;-66
2022/01/15 10:50:34;;;;;;;55.58;26.50;;;;;;;0.86;100.00;97620.75;4950484;28;20122;-64
2022/01/15 10:53:10;;;;;;;62.17;30.58;;;;;;;1.11;100.00;97621.66;4960555;28;20570;-66
2022/01/15 10:55:37;;;;;;;62.35;29.25;;;;;;;1.18;100.00;97615.94;4956817;28;20073;-65
2022/01/15 10:58:09;;;;;;;61.75;28.75;;;;;;;0.60;100.00;97613.94;4955311;28;20403;-63
2022/01/15 11:00:41;;;;;;;57.90;27.75;;;;;;;0.81;100.00;97611.88;4961569;28;20066;-66
2022/01/15 11:03:10;;;;;;;61.47;28.88;;;;;;;0.93;100.00;97613.13;4947801;28;20241;-65
2022/01/15 11:05:43;;;;;;;65.50;29.38;;;;;;;0.60;100.00;97600.44;4959967;28;20045;-65
2022/01/15 11:08:13;;;;;;;53.08;26.92;;;;;;;0.89;100.00;97600.50;4955574;28;20481;-64
2022/01/15 11:10:43;;;;;;;56.25;27.45;;;;;;;0.73;100.00;97603.31;4954911;28;20141;-65
2022/01/15 11:13:11;;;;;;;67.45;30.08;;;;;;;0.70;100.00;97595.81;4954098;28;20043;-65
2022/01/15 11:15:38;;;;;;;62.45;29.33;;;;;;;0.95;100.00;97602.06;4958992;28;20043;-63
2022/01/15 11:18:04;;;;;;;67.10;30.83;;;;;;;0.78;100.00;97596.28;4953178;28;20508;-62
2022/01/15 11:20:33;;;;;;;68.22;30.38;;;;;;;0.49;100.00;97587.03;4973645;28;20053;-66
2022/01/15 11:23:01;;;;;;;62.17;29.50;;;;;;;0.81;100.00;97591.13;4960730;28;20038;-64
2022/01/15 11:25:28;;;;;;;66.95;30.45;;;;;;;1.08;100.00;97587.13;4954919;28;20057;-65
2022/01/15 11:27:54;;;;;;;69.43;32.42;;;;;;;1.24;100.00;97575.13;4956545;28;20038;-64
2022/01/15 11:30:20;;;;;;;63.35;30.92;;;;;;;1.28;100.00;97569.97;4951411;28;20054;-66